createdAt,value
2022-10-11T00:00:48.229Z,92.40
2022-10-11T00:02:56.708Z,91.90
2022-10-11T00:05:03.684Z,92.20
2022-10-11T00:07:10.815Z,92.30
2022-10-11T00:09:17.791Z,91.80
2022-10-11T00:11:24.973Z,91.50
2022-10-11T00:13:31.853Z,92.00
2022-10-11T00:15:38.825Z,91.30
2022-10-11T00:17:46.110Z,90.90
2022-10-11T00:19:54.674Z,90.50
2022-10-11T00:22:01.904Z,90.20
2022-10-11T00:24:09.343Z,90.80
2022-10-11T00:26:16.472Z,90.30
2022-10-11T00:28:23.325Z,89.40
2022-10-11T00:30:30.427Z,88.40
2022-10-11T00:32:37.817Z,87.20
2022-10-11T00:34:45.098Z,86.70
2022-10-11T00:36:53.712Z,87.20
2022-10-11T00:39:02.024Z,85.60
2022-10-11T00:41:09.253Z,85.20
2022-10-11T00:43:19.764Z,86.10
2022-10-11T00:46:05.242Z,86.00
2022-10-11T00:48:23.795Z,85.20
2022-10-11T00:50:34.097Z,85.10
2022-10-11T00:52:46.865Z,84.70
2022-10-11T00:54:56.857Z,84.30
2022-10-11T00:57:06.648Z,83.30
2022-10-11T00:59:18.591Z,84.00
2022-10-11T01:01:24.784Z,83.90
2022-10-11T01:03:34.185Z,82.60
2022-10-11T01:05:43.056Z,81.50
2022-10-11T01:07:53.004Z,82.40
2022-10-11T01:09:59.977Z,83.10
2022-10-11T01:12:14.942Z,81.20
2022-10-11T01:14:56.735Z,80.80
2022-10-11T01:17:11.085Z,79.80
2022-10-11T01:19:36.548Z,80.90
2022-10-11T01:21:50.689Z,80.50
2022-10-11T01:24:27.158Z,80.50
2022-10-11T01:27:07.673Z,79.90
2022-10-11T01:29:28.932Z,79.60
2022-10-11T01:31:43.846Z,77.60
2022-10-11T01:33:56.146Z,76.40
2022-10-11T01:36:12.646Z,78.40
2022-10-11T01:38:26.384Z,78.30
2022-10-11T01:40:37.813Z,77.80
2022-10-11T01:42:46.174Z,77.90
2022-10-11T01:44:55.145Z,77.80
2022-10-11T01:47:03.761Z,77.90
2022-10-11T01:49:11.198Z,78.00
2022-10-11T01:51:18.073Z,77.60
2022-10-11T01:54:00.941Z,77.00
2022-10-11T01:56:20.516Z,76.30
2022-10-11T01:58:42.602Z,76.70
2022-10-11T02:00:57.510Z,76.50
2022-10-11T02:03:23.020Z,76.70
2022-10-11T02:05:38.705Z,76.50
2022-10-11T02:07:48.901Z,77.50
2022-10-11T02:10:00.691Z,76.40
2022-10-11T02:12:12.689Z,77.20
2022-10-11T02:14:23.660Z,77.00
2022-10-11T02:16:34.422Z,77.60
2022-10-11T02:18:48.668Z,74.40
2022-10-11T02:20:56.931Z,75.40
2022-10-11T02:23:08.870Z,74.50
2022-10-11T02:25:20.403Z,74.60
2022-10-11T02:27:31.169Z,74.10
2022-10-11T02:29:42.857Z,76.00
2022-10-11T02:31:51.624Z,76.00
2022-10-11T02:34:03.568Z,73.50
2022-10-11T02:36:16.228Z,73.60
2022-10-11T02:38:26.686Z,72.90
2022-10-11T02:40:36.683Z,73.70
2022-10-11T02:42:48.268Z,74.30
2022-10-11T02:45:00.826Z,75.40
2022-10-11T02:47:08.418Z,73.30
2022-10-11T02:49:17.903Z,73.60
2022-10-11T02:51:24.829Z,72.70
2022-10-11T02:53:32.062Z,74.00
2022-10-11T02:55:39.038Z,72.60
2022-10-11T02:57:45.760Z,73.70
2022-10-11T02:59:52.738Z,73.00
2022-10-11T03:02:00.309Z,72.50
2022-10-11T03:04:07.201Z,72.10
2022-10-11T03:06:16.074Z,71.10
2022-10-11T03:08:23.254Z,71.80
2022-10-11T03:10:30.591Z,71.40
2022-10-11T03:12:37.568Z,71.40
2022-10-11T03:14:44.598Z,71.10
2022-10-11T03:16:51.658Z,71.70
2022-10-11T03:18:58.755Z,71.30
2022-10-11T03:21:05.678Z,71.00
2022-10-11T03:23:15.063Z,70.50
2022-10-11T03:25:22.193Z,70.40
2022-10-11T03:27:29.733Z,70.00
2022-10-11T03:29:36.764Z,69.50
2022-10-11T03:31:43.736Z,70.50
2022-10-11T03:33:50.714Z,69.10
2022-10-11T03:35:57.844Z,68.90
2022-10-11T03:38:04.822Z,69.40
2022-10-11T03:40:15.130Z,69.20
2022-10-11T03:42:22.003Z,69.20
2022-10-11T03:44:29.591Z,69.00
2022-10-11T03:46:36.978Z,68.80
2022-10-11T03:48:43.954Z,69.30
2022-10-11T03:50:51.549Z,68.70
2022-10-11T03:52:58.830Z,68.20
2022-10-11T03:55:05.909Z,68.30
2022-10-11T03:57:14.832Z,68.40
2022-10-11T03:59:21.708Z,69.70
2022-10-11T04:01:29.021Z,67.80
2022-10-11T04:03:35.916Z,65.50
2022-10-11T04:05:43.253Z,67.10
2022-10-11T04:07:50.484Z,66.60
2022-10-11T04:09:57.717Z,66.20
2022-10-11T04:12:04.797Z,66.80
2022-10-11T04:14:13.565Z,66.80
2022-10-11T04:16:20.236Z,66.10
2022-10-11T04:18:27.673Z,65.80
2022-10-11T04:20:34.649Z,65.00
2022-10-11T04:22:41.831Z,64.70
2022-10-11T04:24:48.808Z,65.20
2022-10-11T04:26:55.683Z,65.20
2022-10-11T04:29:02.505Z,64.70
2022-10-11T04:31:11.119Z,64.90
2022-10-11T04:33:17.840Z,65.60
2022-10-11T04:35:24.818Z,63.80
2022-10-11T04:37:31.593Z,65.10
2022-10-11T04:39:39.182Z,62.70
2022-10-11T04:41:46.055Z,66.10
2022-10-11T04:43:53.032Z,64.60
2022-10-11T04:45:59.863Z,64.00
2022-10-11T04:48:09.033Z,63.60
2022-10-11T04:50:15.907Z,63.50
2022-10-11T04:52:25.677Z,63.40
2022-10-11T04:54:32.985Z,64.60
2022-10-11T04:56:40.166Z,64.10
2022-10-11T04:58:49.039Z,65.40
2022-10-11T05:00:55.861Z,65.70
2022-10-11T05:03:02.788Z,65.60
2022-10-11T05:05:12.476Z,65.50
2022-10-11T05:07:19.403Z,64.10
2022-10-11T05:09:26.330Z,65.10
2022-10-11T05:11:33.320Z,65.80
2022-10-11T05:13:40.845Z,66.90
2022-10-11T05:15:47.822Z,67.20
2022-10-11T05:17:54.748Z,66.60
2022-10-11T05:20:01.576Z,67.40
2022-10-11T05:22:09.982Z,65.60
2022-10-11T05:24:16.754Z,65.70
2022-10-11T05:26:24.653Z,67.60
2022-10-11T05:28:32.297Z,67.40
2022-10-11T05:30:39.271Z,66.30
2022-10-11T05:32:46.609Z,65.60
2022-10-11T05:34:53.480Z,66.50
2022-10-11T05:37:00.612Z,66.10
2022-10-11T05:39:09.329Z,63.30
2022-10-11T05:41:17.995Z,63.20
2022-10-11T05:43:24.766Z,62.80
2022-10-11T05:45:33.280Z,63.30
2022-10-11T05:47:40.205Z,62.50
2022-10-11T05:49:47.133Z,62.30
2022-10-11T05:51:54.313Z,62.80
2022-10-11T05:54:01.392Z,63.10
2022-10-11T05:56:22.502Z,63.70
2022-10-11T05:58:29.631Z,64.70
2022-10-11T06:00:39.528Z,66.50
2022-10-11T06:02:46.246Z,66.20
2022-10-11T06:04:53.582Z,65.70
2022-10-11T06:07:00.558Z,65.20
2022-10-11T06:09:07.842Z,66.20
2022-10-11T06:11:18.968Z,65.10
2022-10-11T06:13:26.506Z,64.80
2022-10-11T06:15:33.382Z,64.60
2022-10-11T06:17:40.512Z,63.90
2022-10-11T06:19:47.181Z,63.60
2022-10-11T06:21:54.569Z,62.90
2022-10-11T06:24:03.405Z,62.70
2022-10-11T06:26:11.952Z,64.20
2022-10-11T06:28:20.598Z,63.40
2022-10-11T06:30:27.434Z,61.70
2022-10-11T06:32:34.932Z,62.00
2022-10-11T06:34:42.112Z,61.80
2022-10-11T06:36:48.987Z,62.10
2022-10-11T06:38:56.731Z,62.10
2022-10-11T06:41:14.052Z,61.90
2022-10-11T06:43:22.971Z,61.10
2022-10-11T06:45:29.796Z,61.50
2022-10-11T06:47:37.183Z,61.80
2022-10-11T06:49:44.364Z,61.40
2022-10-11T06:51:51.709Z,61.60
2022-10-11T06:54:00.672Z,62.00
2022-10-11T06:56:08.673Z,62.70
2022-10-11T06:58:16.171Z,63.10
2022-10-11T07:00:24.828Z,63.30
2022-10-11T07:02:31.660Z,63.40
2022-10-11T07:04:38.679Z,63.00
2022-10-11T07:06:45.862Z,63.10
2022-10-11T07:08:53.094Z,62.80
2022-10-11T07:11:04.372Z,62.20
2022-10-11T07:13:17.003Z,63.20
2022-10-11T07:15:26.265Z,63.80
2022-10-11T07:17:33.187Z,63.70
2022-10-11T07:19:40.223Z,63.50
2022-10-11T07:21:47.610Z,63.40
2022-10-11T07:23:55.104Z,62.80
2022-10-11T07:26:03.653Z,63.60
2022-10-11T07:28:10.770Z,62.70
2022-10-11T07:30:17.916Z,63.20
2022-10-11T07:32:26.888Z,62.40
2022-10-11T07:34:33.976Z,63.80
2022-10-11T07:36:41.356Z,64.30
2022-10-11T07:38:51.152Z,64.70
2022-10-11T07:40:58.842Z,64.40
2022-10-11T07:43:08.234Z,63.70
2022-10-11T07:45:15.817Z,63.90
2022-10-11T07:49:44.825Z,64.90
2022-10-11T07:51:51.953Z,65.10
2022-10-11T07:54:03.377Z,65.00
2022-10-11T07:56:14.920Z,65.50
2022-10-11T07:58:21.894Z,64.70
2022-10-11T08:00:29.204Z,65.10
2022-10-11T08:02:36.572Z,64.60
2022-10-11T08:04:45.334Z,65.30
2022-10-11T08:06:53.437Z,65.40
2022-10-11T08:09:02.461Z,66.30
2022-10-11T08:11:09.695Z,66.10
2022-10-11T08:13:16.672Z,66.60
2022-10-11T08:15:24.262Z,66.90
2022-10-11T08:17:32.522Z,66.80
2022-10-11T08:19:39.548Z,65.80
2022-10-11T08:21:48.265Z,65.70
2022-10-11T08:23:55.260Z,66.00
2022-10-11T08:26:02.431Z,66.20
2022-10-11T08:28:10.713Z,66.50
2022-10-11T08:30:18.024Z,66.50
2022-10-11T08:32:25.042Z,66.70
2022-10-11T08:34:31.917Z,66.00
2022-10-11T08:36:39.764Z,66.30
2022-10-11T08:38:49.713Z,67.40
2022-10-11T08:40:58.890Z,66.70
2022-10-11T08:43:09.654Z,66.60
2022-10-11T08:45:30.507Z,66.60
2022-10-11T08:47:42.040Z,66.20
2022-10-11T08:49:49.026Z,66.00
2022-10-11T08:52:03.367Z,66.00
2022-10-11T08:54:19.511Z,65.80
2022-10-11T08:56:29.457Z,66.10
2022-10-11T08:58:42.730Z,66.70
2022-10-11T09:00:52.369Z,67.20
2022-10-11T09:03:08.880Z,67.40
2022-10-11T09:05:20.044Z,67.60
2022-10-11T09:07:42.586Z,67.70
2022-10-11T09:10:05.743Z,68.30
2022-10-11T09:12:21.737Z,69.20
2022-10-11T09:14:59.017Z,69.10
2022-10-11T09:17:12.701Z,68.70
2022-10-11T09:19:44.817Z,68.20
2022-10-11T09:21:59.320Z,68.40
2022-10-11T09:24:40.152Z,68.80
2022-10-11T09:26:57.358Z,69.10
2022-10-11T09:29:13.859Z,69.20
2022-10-11T09:31:20.681Z,69.30
2022-10-11T09:33:36.414Z,69.10
2022-10-11T09:35:46.311Z,69.10
2022-10-11T09:38:00.760Z,69.40
2022-10-11T09:40:20.285Z,69.70
2022-10-11T09:42:29.050Z,69.30
2022-10-11T09:44:39.458Z,68.70
2022-10-11T09:46:47.766Z,68.80
2022-10-11T09:48:57.664Z,68.90
2022-10-11T09:51:10.269Z,69.20
2022-10-11T09:53:17.354Z,69.10
2022-10-11T09:55:39.839Z,68.90
2022-10-11T09:57:58.234Z,69.00
2022-10-11T10:00:09.669Z,68.70
2022-10-11T10:02:24.886Z,68.80
2022-10-11T10:04:31.760Z,69.00
2022-10-11T10:06:39.660Z,69.00
2022-10-11T10:08:48.324Z,68.50
2022-10-11T10:11:03.901Z,68.40
2022-10-11T10:13:24.501Z,67.80
2022-10-11T10:15:34.700Z,68.00
2022-10-11T10:17:42.447Z,68.20
2022-10-11T10:19:53.878Z,68.40
2022-10-11T10:22:01.060Z,68.70
2022-10-11T10:24:11.877Z,68.60
2022-10-11T10:26:22.488Z,68.70
2022-10-11T10:28:31.882Z,69.00
2022-10-11T10:30:38.798Z,68.90
2022-10-11T10:32:52.072Z,68.70
2022-10-11T10:35:05.959Z,68.70
2022-10-11T10:37:30.248Z,68.70
2022-10-11T10:39:43.832Z,68.50
2022-10-11T10:41:51.568Z,68.90
2022-10-11T10:44:02.590Z,69.30
2022-10-11T10:46:36.913Z,69.70
2022-10-11T10:51:27.470Z,71.10
2022-10-11T10:53:40.695Z,70.90
2022-10-11T10:55:50.538Z,71.10
2022-10-11T10:58:18.883Z,71.00
2022-10-11T11:00:28.197Z,70.90
2022-10-11T11:02:43.120Z,70.90
2022-10-11T11:04:54.181Z,71.10
2022-10-11T11:07:07.407Z,71.20
2022-10-11T11:09:27.900Z,72.10
2022-10-11T11:11:50.032Z,72.10
2022-10-11T11:14:03.459Z,72.10
2022-10-11T11:16:21.803Z,72.40
2022-10-11T11:18:37.483Z,72.50
2022-10-11T11:20:55.366Z,72.90
2022-10-11T11:23:11.297Z,73.10
2022-10-11T11:25:29.939Z,73.50
2022-10-11T11:27:54.032Z,74.50
2022-10-11T11:30:07.769Z,74.70
2022-10-11T11:32:26.622Z,75.50
2022-10-11T11:34:39.846Z,76.00
2022-10-11T11:36:50.151Z,76.90
2022-10-11T11:39:04.857Z,77.80
2022-10-11T11:41:16.596Z,79.10
2022-10-11T11:43:26.938Z,79.90
2022-10-11T11:45:40.382Z,80.40
2022-10-11T11:47:55.599Z,80.40
2022-10-11T11:50:05.114Z,81.20
2022-10-11T11:52:17.387Z,81.90
2022-10-11T11:54:38.906Z,82.20
2022-10-11T11:56:51.507Z,82.20
2022-10-11T11:59:04.075Z,83.40
2022-10-11T12:01:27.608Z,83.10
2022-10-11T12:03:44.139Z,81.80
2022-10-11T12:06:26.090Z,82.70
2022-10-11T12:08:36.697Z,84.50
2022-10-11T12:10:58.881Z,83.40
2022-10-11T12:13:22.189Z,84.10
2022-10-11T12:15:30.241Z,84.10
2022-10-11T12:17:37.517Z,84.90
2022-10-11T12:20:01.854Z,85.70
2022-10-11T12:22:39.557Z,86.20
2022-10-11T12:24:57.951Z,86.30
2022-10-11T12:27:42.305Z,85.30
2022-10-11T12:29:53.477Z,84.40
2022-10-11T12:32:35.432Z,84.40
2022-10-11T12:34:46.090Z,85.60
2022-10-11T12:36:53.892Z,85.20
2022-10-11T12:39:34.296Z,85.20
2022-10-11T12:41:54.635Z,87.10
2022-10-11T12:44:24.550Z,87.00
2022-10-11T12:47:03.825Z,88.00
2022-10-11T12:49:40.955Z,87.40
2022-10-11T12:52:00.130Z,87.80
2022-10-11T12:54:36.119Z,88.20
2022-10-11T12:56:51.869Z,89.20
2022-10-11T12:59:07.243Z,88.70
2022-10-11T13:01:25.121Z,88.80
2022-10-11T13:03:33.896Z,88.90
2022-10-11T13:05:52.456Z,88.80
2022-10-11T13:08:06.180Z,88.90
2022-10-11T13:10:18.581Z,89.10
2022-10-11T13:12:26.991Z,89.60
2022-10-11T13:14:38.066Z,89.80
2022-10-11T13:16:59.224Z,90.10
2022-10-11T13:19:09.697Z,90.60
2022-10-11T13:21:23.200Z,90.40
2022-10-11T13:23:39.868Z,90.60
2022-10-11T13:25:47.151Z,90.90
2022-10-11T13:27:56.587Z,91.20
2022-10-11T13:30:05.048Z,91.20
2022-10-11T13:32:17.351Z,91.40
2022-10-11T13:34:26.119Z,91.60
2022-10-11T13:36:33.403Z,91.70
2022-10-11T13:38:42.426Z,91.70
2022-10-11T13:40:51.159Z,91.80
2022-10-11T13:42:58.792Z,92.00
2022-10-11T13:45:08.016Z,92.00
2022-10-11T13:47:17.143Z,92.10
2022-10-11T13:49:38.507Z,92.20
2022-10-11T13:51:45.742Z,92.40
2022-10-11T13:54:05.620Z,92.40
2022-10-11T13:56:13.575Z,92.60
2022-10-11T13:58:28.892Z,92.30
2022-10-11T14:00:39.248Z,92.30
2022-10-11T14:02:52.825Z,92.20
2022-10-11T14:05:00.165Z,92.10
2022-10-11T14:07:10.361Z,92.10
2022-10-11T14:09:29.888Z,92.00
2022-10-11T14:11:39.424Z,92.10
2022-10-11T14:13:47.120Z,92.00
2022-10-11T14:16:04.013Z,92.00
2022-10-11T14:18:35.173Z,91.60
2022-10-11T14:20:43.530Z,91.00
2022-10-11T14:22:50.666Z,90.60
2022-10-11T14:24:59.277Z,90.20
2022-10-11T14:27:09.326Z,89.70
2022-10-11T14:29:24.096Z,88.80
2022-10-11T14:31:31.421Z,88.30
2022-10-11T14:33:38.451Z,88.10
2022-10-11T14:35:45.737Z,88.00
2022-10-11T14:37:53.271Z,87.70
2022-10-11T14:40:02.399Z,87.40
2022-10-11T14:42:09.275Z,87.20
2022-10-11T14:44:17.889Z,87.50
2022-10-11T14:46:28.096Z,87.40
2022-10-11T14:48:54.504Z,87.20
2022-10-11T14:51:04.368Z,87.30
2022-10-11T14:53:13.496Z,87.80
2022-10-11T14:55:22.522Z,88.20
2022-10-11T14:57:29.293Z,88.40
2022-10-11T14:59:37.616Z,88.40
2022-10-11T15:01:44.688Z,88.70
2022-10-11T15:03:51.657Z,89.10
2022-10-11T15:05:59.006Z,89.00
2022-10-11T15:08:10.628Z,89.10
2022-10-11T15:10:39.159Z,89.40
2022-10-11T15:12:46.139Z,89.80
2022-10-11T15:14:54.044Z,89.60
2022-10-11T15:17:00.961Z,89.00
2022-10-11T15:19:07.939Z,88.90
2022-10-11T15:21:27.782Z,89.00
2022-10-11T15:23:34.742Z,89.10
2022-10-11T15:25:44.793Z,88.70
2022-10-11T15:27:51.870Z,88.50
2022-10-11T15:29:58.644Z,88.60
2022-10-11T15:32:05.620Z,88.70
2022-10-11T15:34:12.391Z,88.80
2022-10-11T15:36:20.852Z,89.10
2022-10-11T15:38:28.904Z,89.60
2022-10-11T15:40:37.418Z,89.80
2022-10-11T15:42:45.995Z,90.10
2022-10-11T15:44:53.419Z,90.90
2022-10-11T15:47:00.196Z,91.40
2022-10-11T15:49:14.079Z,92.00
2022-10-11T15:51:21.161Z,91.90
2022-10-11T15:53:32.231Z,92.30
2022-10-11T15:55:41.410Z,92.50
2022-10-11T15:57:49.924Z,93.00
2022-10-11T15:59:56.798Z,93.20
2022-10-11T16:02:03.897Z,92.90
2022-10-11T16:04:10.804Z,92.80
2022-10-11T16:06:18.191Z,92.90
2022-10-11T16:08:25.067Z,93.00
2022-10-11T16:10:32.247Z,92.70
2022-10-11T16:12:39.325Z,92.60
2022-10-11T16:14:48.000Z,92.10
2022-10-11T16:16:54.865Z,92.20
2022-10-11T16:19:01.846Z,92.40
2022-10-11T16:21:11.228Z,92.70
2022-10-11T16:23:18.618Z,92.60
2022-10-11T16:25:26.409Z,92.70
2022-10-11T16:27:33.234Z,92.70
2022-10-11T16:29:40.106Z,92.80
2022-10-11T16:31:48.772Z,93.00
2022-10-11T16:33:56.209Z,93.20
2022-10-11T16:36:25.358Z,93.60
2022-10-11T16:38:35.515Z,93.80
2022-10-11T16:40:45.606Z,93.90
2022-10-11T16:43:07.648Z,94.10
2022-10-11T16:45:15.333Z,94.10
2022-10-11T16:47:23.986Z,93.80
2022-10-11T16:49:32.562Z,93.60
2022-10-11T16:51:39.435Z,93.50
2022-10-11T16:53:46.207Z,92.40
2022-10-11T16:55:53.287Z,91.60
2022-10-11T16:58:00.672Z,91.20
2022-10-11T17:00:09.647Z,90.50
2022-10-11T17:02:20.309Z,89.70
2022-10-11T17:04:28.874Z,89.00
2022-10-11T17:06:36.362Z,88.60
2022-10-11T17:08:43.288Z,88.30
2022-10-11T17:10:57.876Z,88.30
2022-10-11T17:13:04.820Z,88.00
2022-10-11T17:15:14.922Z,87.80
2022-10-11T17:17:22.153Z,87.00
2022-10-11T17:19:30.665Z,86.70
2022-10-11T17:21:37.488Z,86.40
2022-10-11T17:23:44.772Z,86.20
2022-10-11T17:25:51.595Z,85.80
2022-10-11T17:28:00.058Z,85.70
2022-10-11T17:30:07.239Z,85.60
2022-10-11T17:32:14.728Z,84.80
2022-10-11T17:34:21.909Z,84.90
2022-10-11T17:36:35.133Z,84.80
2022-10-11T17:38:45.130Z,84.90
2022-10-11T17:41:01.221Z,84.80
2022-10-11T17:43:08.045Z,84.70
2022-10-11T17:45:19.781Z,84.60
2022-10-11T17:47:27.680Z,84.60
2022-10-11T17:49:37.064Z,84.70
2022-10-11T17:51:46.401Z,84.10
2022-10-11T17:53:53.630Z,84.60
2022-10-11T17:56:00.657Z,84.70
2022-10-11T17:58:07.326Z,84.90
2022-10-11T18:00:15.686Z,85.30
2022-10-11T18:02:22.817Z,85.40
2022-10-11T18:04:31.072Z,85.60
2022-10-11T18:06:44.194Z,85.60
2022-10-11T18:08:53.272Z,85.90
2022-10-11T18:11:00.093Z,86.10
2022-10-11T18:13:11.980Z,86.40
2022-10-11T18:15:21.522Z,86.60
2022-10-11T18:17:34.028Z,86.70
2022-10-11T18:19:41.212Z,86.80
2022-10-11T18:21:48.698Z,86.90
2022-10-11T18:23:57.367Z,86.90
2022-10-11T18:26:12.902Z,87.00
2022-10-11T18:28:20.248Z,86.90
2022-10-11T18:30:27.256Z,86.80
2022-10-11T18:32:34.386Z,86.90
2022-10-11T18:34:41.311Z,87.00
2022-10-11T18:36:48.495Z,87.10
2022-10-11T18:38:59.975Z,87.10
2022-10-11T18:41:10.640Z,87.10
2022-10-11T18:43:17.668Z,86.90
2022-10-11T18:45:24.644Z,87.10
2022-10-11T18:47:31.674Z,87.40
2022-10-11T18:49:38.649Z,87.50
2022-10-11T18:51:48.953Z,87.60
2022-10-11T18:53:59.616Z,87.70
2022-10-11T18:56:08.218Z,87.60
2022-10-11T18:58:15.313Z,87.80
2022-10-11T19:00:40.051Z,87.70
2022-10-11T19:02:47.341Z,87.90
2022-10-11T19:04:55.390Z,87.50
2022-10-11T19:07:02.265Z,87.60
2022-10-11T19:09:12.930Z,87.60
2022-10-11T19:11:23.181Z,87.50
2022-10-11T19:13:30.059Z,87.60
2022-10-11T19:15:38.941Z,87.40
2022-10-11T19:17:45.750Z,87.60
2022-10-11T19:19:53.085Z,87.70
2022-10-11T19:22:00.267Z,87.50
2022-10-11T19:24:07.912Z,87.40
2022-10-11T19:26:18.782Z,87.40
2022-10-11T19:28:26.009Z,87.40
2022-10-11T19:30:34.678Z,87.30
2022-10-11T19:32:41.807Z,87.40
2022-10-11T19:34:48.835Z,87.00
2022-10-11T19:36:56.017Z,87.40
2022-10-11T19:39:02.791Z,87.10
2022-10-11T19:41:10.077Z,87.30
2022-10-11T19:43:18.791Z,87.20
2022-10-11T19:45:25.871Z,87.40
2022-10-11T19:47:33.148Z,87.40
2022-10-11T19:49:40.797Z,87.50
2022-10-11T19:51:47.673Z,86.80
2022-10-11T19:53:59.720Z,86.40
2022-10-11T19:56:06.692Z,86.60
2022-10-11T19:58:13.619Z,86.40
2022-10-11T20:00:22.799Z,86.80
2022-10-11T20:02:30.031Z,86.80
2022-10-11T20:04:53.195Z,86.80
2022-10-11T20:07:00.268Z,86.80
2022-10-11T20:11:34.649Z,86.40
2022-10-11T20:13:42.344Z,86.20
2022-10-11T20:15:51.264Z,86.10
2022-10-11T20:17:58.292Z,85.70
2022-10-11T20:20:05.319Z,86.00
2022-10-11T20:22:12.091Z,86.10
2022-10-11T20:24:19.224Z,86.00
2022-10-11T20:26:26.967Z,86.00
2022-10-11T20:28:35.565Z,85.80
2022-10-11T20:30:46.198Z,85.60
2022-10-11T20:32:54.913Z,86.00
2022-10-11T20:35:01.788Z,85.70
2022-10-11T20:37:08.712Z,85.80
2022-10-11T20:39:16.304Z,86.00
2022-10-11T20:41:25.174Z,86.20
2022-10-11T20:43:32.048Z,86.00
2022-10-11T20:45:39.078Z,85.80
2022-10-11T20:47:45.798Z,85.70
2022-10-11T20:49:54.875Z,85.90
2022-10-11T20:52:02.005Z,85.90
2022-10-11T20:54:09.594Z,85.60
2022-10-11T20:56:18.579Z,85.60
2022-10-11T20:58:25.955Z,85.90
2022-10-11T21:00:32.626Z,85.90
2022-10-11T21:02:39.806Z,85.90
2022-10-11T21:04:46.834Z,85.80
2022-10-11T21:06:55.451Z,85.60
2022-10-11T21:09:02.733Z,85.90
2022-10-11T21:11:10.430Z,86.10
2022-10-11T21:13:17.353Z,86.10
2022-10-11T21:15:24.432Z,85.60
2022-10-11T21:17:31.357Z,85.40
2022-10-11T21:19:38.234Z,85.60
2022-10-11T21:21:49.516Z,85.50
2022-10-11T21:24:02.134Z,85.30
2022-10-11T21:26:10.736Z,85.20
2022-10-11T21:28:17.887Z,84.60
2022-10-11T21:30:24.791Z,84.40
2022-10-11T21:32:32.206Z,84.70
2022-10-11T21:34:39.258Z,84.90
2022-10-11T21:36:46.181Z,84.60
2022-10-11T21:38:54.255Z,84.90
2022-10-11T21:41:04.949Z,84.70
2022-10-11T21:43:11.822Z,84.70
2022-10-11T21:45:18.697Z,84.90
2022-10-11T21:47:25.417Z,85.30
2022-10-11T21:49:33.059Z,85.10
2022-10-11T21:51:40.036Z,85.10
2022-10-11T21:53:46.910Z,85.20
2022-10-11T21:55:59.111Z,85.20
2022-10-11T21:58:09.267Z,85.30
2022-10-11T22:00:17.109Z,85.00
2022-10-11T22:02:23.880Z,85.30
2022-10-11T22:04:31.011Z,85.60
2022-10-11T22:06:38.296Z,85.80
2022-10-11T22:08:45.476Z,85.80
2022-10-11T22:10:57.985Z,86.10
2022-10-11T22:13:06.495Z,85.90
2022-10-11T22:15:14.192Z,85.80
2022-10-11T22:17:21.012Z,86.00
2022-10-11T22:19:28.091Z,86.10
2022-10-11T22:21:34.967Z,86.30
2022-10-11T22:23:41.943Z,86.40
2022-10-11T22:25:49.278Z,86.40
2022-10-11T22:27:56.205Z,85.80
2022-10-11T22:30:04.819Z,85.70
2022-10-11T22:32:11.693Z,86.20
2022-10-11T22:34:18.722Z,85.90
2022-10-11T22:36:26.620Z,85.30
2022-10-11T22:38:33.699Z,84.60
2022-10-11T22:40:44.054Z,84.40
2022-10-11T22:42:51.340Z,84.10
2022-10-11T22:44:58.213Z,83.80
2022-10-11T22:47:07.033Z,83.90
2022-10-11T22:49:14.166Z,83.80
2022-10-11T22:51:20.938Z,84.00
2022-10-11T22:53:28.275Z,84.10
2022-10-11T22:55:35.200Z,83.90
2022-10-11T22:57:42.123Z,83.80
2022-10-11T22:59:48.894Z,84.20
2022-10-11T23:01:56.026Z,84.20
2022-10-11T23:04:04.517Z,84.30
2022-10-11T23:06:11.565Z,84.60
2022-10-11T23:08:18.337Z,85.60
2022-10-11T23:10:25.118Z,86.30
2022-10-11T23:12:31.935Z,86.60
2022-10-11T23:14:39.069Z,87.20
2022-10-11T23:16:46.040Z,87.30
2022-10-11T23:18:56.141Z,87.40
2022-10-11T23:21:06.292Z,87.70
2022-10-11T23:23:14.599Z,88.20
2022-10-11T23:25:21.780Z,89.50
2022-10-11T23:27:28.760Z,88.90
2022-10-11T23:29:36.450Z,88.90
2022-10-11T23:31:43.222Z,88.50
2022-10-11T23:33:51.023Z,88.80
2022-10-11T23:35:57.893Z,89.00
2022-10-11T23:38:06.614Z,89.30
2022-10-11T23:40:14.048Z,89.60
2022-10-11T23:42:20.923Z,89.60
2022-10-11T23:44:27.746Z,89.80
2022-10-11T23:46:34.883Z,89.90
2022-10-11T23:48:41.495Z,90.20
2022-10-11T23:50:48.934Z,90.40
2022-10-11T23:52:55.653Z,90.40
2022-10-11T23:55:04.221Z,90.70
2022-10-11T23:57:11.142Z,90.10
2022-10-11T23:59:18.120Z,89.30
